Time;durP1;ratioP1;P1;durP2;ratioP2;P2;SDS_P1;SDS_P2;PMS_P1;PMS_P2;Temp;Humidity;BMP_temperature;BMP_pressure;BME280_temperature;BME280_humidity;BME280_pressure;Samples;Min_cycle;Max_cycle;Signal;HPM_P1;HPM_P2
2022/01/27 00:01:34;;;;;;;;;50.25;33.75;;;;;5.07;66.07;103029.28;5097696;27;45480;-46
2022/01/27 00:06:34;;;;;;;;;61.00;43.75;;;;;4.97;65.80;103014.69;5097370;27;45433;-48
2022/01/27 00:09:10;;;;;;;;;57.50;38.25;;;;;5.02;65.36;103022.47;5097417;27;45198;-46
2022/01/27 00:11:35;;;;;;;;;51.25;38.75;;;;;4.99;66.47;103012.88;5097668;27;45308;-46
2022/01/27 00:14:02;;;;;;;;;51.00;43.00;;;;;5.06;65.61;103014.38;5097789;27;45215;-46
2022/01/27 00:16:31;;;;;;;;;67.00;47.50;;;;;4.98;66.01;102998.81;5097553;27;47023;-48
2022/01/27 00:18:57;;;;;;;;;64.50;45.50;;;;;5.12;66.45;103023.84;5097617;27;45409;-46
2022/01/27 00:21:25;;;;;;;;;60.50;45.25;;;;;5.12;66.73;103010.66;5097675;27;45428;-45
2022/01/27 00:23:52;;;;;;;;;57.75;44.00;;;;;5.15;66.21;103018.47;5097870;27;45259;-49
2022/01/27 00:26:18;;;;;;;;;54.75;43.75;;;;;5.17;65.84;103003.41;5097260;27;46286;-47
2022/01/27 00:28:45;;;;;;;;;56.75;44.75;;;;;5.10;65.43;102986.97;5097475;27;45456;-50
2022/01/27 00:31:12;;;;;;;;;68.25;45.25;;;;;5.19;66.01;102999.81;5097509;27;45302;-47
2022/01/27 00:33:37;;;;;;;;;61.75;42.75;;;;;5.20;65.59;102998.03;5097557;27;45464;-47
2022/01/27 00:36:04;;;;;;;;;59.00;45.25;;;;;5.18;65.38;103000.75;5097151;27;46164;-48
2022/01/27 00:38:31;;;;;;;;;57.75;43.75;;;;;5.11;65.85;102983.41;5096824;27;45225;-46
2022/01/27 00:40:56;;;;;;;;;62.75;46.50;;;;;5.16;65.91;102992.00;5096939;27;45267;-52
2022/01/27 00:43:22;;;;;;;;;36.50;28.00;;;;;5.14;65.75;102988.59;5097298;27;45507;-46
2022/01/27 00:45:47;;;;;;;;;50.50;44.00;;;;;5.15;66.35;102987.66;5096983;27;45293;-48
2022/01/27 00:48:15;;;;;;;;;64.75;46.00;;;;;5.13;65.75;102978.06;5097086;27;45318;-45
2022/01/27 00:50:42;;;;;;;;;60.50;45.00;;;;;5.14;65.76;102979.78;5079524;27;45315;-48
2022/01/27 00:53:23;;;;;;;;;52.75;40.50;;;;;5.13;65.60;102980.69;5097400;27;45314;-45
2022/01/27 00:55:49;;;;;;;;;65.75;43.75;;;;;5.12;66.43;102979.84;5096917;27;46222;-45
2022/01/27 01:00:50;;;;;;;;;60.75;44.00;;;;;5.08;66.01;102966.81;5097086;27;45360;-48
2022/01/27 01:03:26;;;;;;;;;70.50;43.50;;;;;5.09;65.85;102969.41;5097297;27;45996;-48
2022/01/27 01:19:39;;;;;;;;;57.00;43.25;;;;;4.91;66.48;102949.84;5037149;28;45564;-46
2022/01/27 01:30:45;;;;;;;;;57.75;40.50;;;;;4.78;67.12;102959.13;5037275;28;45424;-48
2022/01/27 01:33:12;;;;;;;;;66.75;47.50;;;;;4.70;67.60;102940.94;5036899;28;45491;-54
2022/01/27 01:35:51;;;;;;;;;68.50;46.75;;;;;4.74;67.22;102953.09;5037328;28;45615;-54
2022/01/27 01:38:19;;;;;;;;;54.50;39.50;;;;;4.70;67.28;102953.25;5036935;28;45417;-50
2022/01/27 01:40:49;;;;;;;;;54.75;45.25;;;;;4.69;68.32;102948.91;5020020;28;45467;-47
2022/01/27 01:43:16;;;;;;;;;63.00;45.75;;;;;4.65;67.45;102942.88;5037021;28;45289;-53
2022/01/27 01:45:42;;;;;;;;;73.25;51.00;;;;;4.71;67.85;102945.28;5037303;28;45345;-51
2022/01/27 01:48:08;;;;;;;;;71.75;46.50;;;;;4.69;68.42;102941.84;5098952;27;46185;-54
2022/01/27 01:50:34;;;;;;;;;64.25;46.75;;;;;4.67;67.88;102943.66;5099846;27;45453;-54
2022/01/27 01:53:00;;;;;;;;;70.75;51.75;;;;;4.66;68.10;102944.59;5100024;27;45320;-55
2022/01/27 01:55:25;;;;;;;;;67.00;50.50;;;;;4.64;68.14;102924.50;5099970;27;45381;-50
2022/01/27 01:57:51;;;;;;;;;67.25;49.75;;;;;4.75;68.33;102928.44;5099797;27;46757;-52
2022/01/27 02:00:17;;;;;;;;;76.50;53.25;;;;;4.77;68.53;102935.44;5099616;27;45436;-54
2022/01/27 02:02:43;;;;;;;;;65.50;47.75;;;;;4.75;68.88;102928.44;5099757;27;45317;-55
2022/01/27 02:05:09;;;;;;;;;71.25;50.00;;;;;4.72;68.38;102930.34;5099725;27;45441;-54
2022/01/27 02:07:55;;;;;;;;;69.25;52.50;;;;;4.70;67.99;102934.81;5099390;27;45449;-53
2022/01/27 02:19:12;;;;;;;;;76.75;51.75;;;;;4.58;68.42;102917.63;5036179;28;45387;-55
2022/01/27 02:22:04;;;;;;;;;83.25;56.00;;;;;4.56;68.74;102922.13;5020419;28;45439;-54
2022/01/27 02:24:33;;;;;;;;;70.00;50.50;;;;;4.52;69.37;102920.50;5036479;28;45523;-51
2022/01/27 02:27:00;;;;;;;;;74.00;49.75;;;;;4.48;69.79;102918.88;5040085;28;45394;-54
2022/01/27 02:29:27;;;;;;;;;72.25;47.75;;;;;4.46;69.31;102920.69;5038200;28;46287;-51
2022/01/27 02:31:54;;;;;;;;;74.50;49.50;;;;;4.35;69.53;102899.16;5036130;28;45309;-53
2022/01/27 02:34:20;;;;;;;;;70.75;47.50;;;;;4.42;70.09;102909.41;5036200;28;45332;-48
2022/01/27 02:36:46;;;;;;;;;72.00;52.75;;;;;4.44;69.90;102904.94;5036275;28;45328;-52
2022/01/27 02:39:12;;;;;;;;;76.25;55.50;;;;;4.44;70.15;102904.94;5035923;28;45341;-52
2022/01/27 02:42:04;;;;;;;;;75.00;55.00;;;;;4.43;69.10;102900.59;5035632;28;45412;-50
2022/01/27 02:44:37;;;;;;;;;70.50;49.00;;;;;4.46;69.91;102907.53;5001623;28;45416;-55
2022/01/27 02:47:03;;;;;;;;;71.25;51.25;;;;;4.49;69.48;102892.47;5016181;28;45470;-52
2022/01/27 02:49:29;;;;;;;;;80.00;49.75;;;;;4.48;69.72;102887.25;5015946;28;46295;-53
2022/01/27 02:51:54;;;;;;;;;72.75;54.50;;;;;4.50;69.60;102885.41;5015952;28;45494;-52
2022/01/27 02:54:20;;;;;;;;;68.00;53.25;;;;;4.31;69.97;102856.25;5015890;28;45571;-49
2022/01/27 02:56:47;;;;;;;;;68.75;52.75;;;;;4.48;70.38;102876.72;5015902;28;45759;-53
2022/01/27 02:59:16;;;;;;;;;69.25;52.50;;;;;4.49;70.18;102883.69;5015683;28;45590;-53
2022/01/27 03:01:47;;;;;;;;;65.50;50.50;;;;;4.48;70.21;102884.63;4999271;28;45345;-48
2022/01/27 03:04:12;;;;;;;;;82.00;55.25;;;;;4.49;69.28;102891.63;5015912;28;45401;-49
2022/01/27 03:06:38;;;;;;;;;69.00;50.50;;;;;4.48;69.41;102882.00;5015743;28;45396;-53
2022/01/27 03:09:03;;;;;;;;;62.00;43.50;;;;;4.48;70.05;102882.84;5015459;28;45446;-51
2022/01/27 03:11:44;;;;;;;;;73.25;53.25;;;;;4.50;69.59;102880.16;5015380;28;45477;-48
2022/01/27 03:14:10;;;;;;;;;70.75;51.50;;;;;4.52;69.71;102873.06;5015467;28;45485;-54
2022/01/27 03:16:36;;;;;;;;;71.50;50.50;;;;;4.52;69.62;102872.22;5015733;28;45491;-50
2022/01/27 03:19:01;;;;;;;;;64.50;51.50;;;;;4.53;68.86;102874.78;5015151;28;46169;-53
2022/01/27 03:21:28;;;;;;;;;66.75;48.25;;;;;4.52;69.66;102873.06;5046511;28;45359;-52
2022/01/27 03:23:53;;;;;;;;;67.50;50.25;;;;;4.53;70.27;102873.91;5077997;27;45345;-50
2022/01/27 03:26:19;;;;;;;;;68.50;47.25;;;;;4.51;70.29;102876.63;5077960;27;45216;-51
2022/01/27 03:28:46;;;;;;;;;70.50;49.50;;;;;4.52;69.46;102872.22;5077758;27;45891;-54
2022/01/27 03:31:12;;;;;;;;;63.75;49.00;;;;;4.52;69.15;102878.34;5077141;27;45461;-49
2022/01/27 03:33:39;;;;;;;;;57.75;43.75;;;;;4.50;69.56;102867.81;5075877;28;45489;-45
2022/01/27 03:36:05;;;;;;;;;69.00;45.50;;;;;4.48;69.92;102876.72;5077842;27;45455;-49
2022/01/27 03:38:30;;;;;;;;;65.75;48.00;;;;;4.46;70.20;102875.91;5077531;27;45346;-50
2022/01/27 03:40:56;;;;;;;;;64.25;46.25;;;;;4.46;69.83;102875.91;5088340;27;45273;-46
2022/01/27 03:43:21;;;;;;;;;56.75;46.75;;;;;4.47;69.76;102875.88;5098121;27;45425;-51
2022/01/27 03:45:46;;;;;;;;;68.25;46.75;;;;;4.43;69.86;102873.41;5098311;27;45173;-49
2022/01/27 03:48:12;;;;;;;;;65.00;48.00;;;;;4.44;70.00;102880.38;5097953;27;46111;-46
2022/01/27 03:50:37;;;;;;;;;64.50;46.50;;;;;4.45;69.90;102875.03;5097815;27;45309;-51
2022/01/27 03:53:03;;;;;;;;;64.75;47.25;;;;;4.50;70.46;102877.50;5097889;27;45333;-47
2022/01/27 03:55:28;;;;;;;;;69.50;47.00;;;;;4.46;69.81;102871.47;5098204;27;45475;-46
2022/01/27 03:57:54;;;;;;;;;68.75;50.50;;;;;4.47;69.33;102870.59;5097462;27;47367;-51
2022/01/27 04:00:19;;;;;;;;;68.00;47.25;;;;;4.46;69.37;102866.22;5097858;27;45280;-54
2022/01/27 04:03:04;;;;;;;;;65.50;45.50;;;;;4.44;70.24;102868.06;5097796;27;45287;-46
2022/01/27 04:05:35;;;;;;;;;64.50;47.25;;;;;4.44;69.85;102875.09;5097752;27;45426;-47
2022/01/27 04:08:01;;;;;;;;;71.50;49.75;;;;;4.44;69.83;102870.69;5097521;27;46651;-47
2022/01/27 04:10:26;;;;;;;;;68.25;45.00;;;;;4.48;69.93;102868.81;5097788;27;45397;-47
2022/01/27 04:12:52;;;;;;;;;64.50;46.00;;;;;4.52;70.47;102877.47;5097586;27;45324;-48
2022/01/27 04:15:17;;;;;;;;;64.25;48.00;;;;;4.54;70.18;102873.84;5098011;27;45324;-48
2022/01/27 04:17:43;;;;;;;;;58.50;41.50;;;;;4.56;70.07;102868.53;5097400;27;46502;-49
2022/01/27 04:20:08;;;;;;;;;56.75;43.25;;;;;4.52;69.93;102867.78;5097367;27;45414;-46
2022/01/27 04:22:34;;;;;;;;;62.50;47.50;;;;;4.49;69.78;102862.63;5097797;27;45236;-48
2022/01/27 04:24:59;;;;;;;;;70.00;48.75;;;;;4.50;69.76;102869.59;5097699;27;45208;-48
2022/01/27 04:27:30;;;;;;;;;59.00;46.50;;;;;4.49;69.94;102866.13;5096964;27;46124;-50
2022/01/27 04:29:55;;;;;;;;;58.25;42.50;;;;;4.47;70.23;102867.09;5096125;27;45380;-49
2022/01/27 04:32:26;;;;;;;;;56.75;41.25;;;;;4.48;69.85;102871.44;5097528;27;45370;-48
2022/01/27 04:34:54;;;;;;;;;63.50;46.50;;;;;4.45;69.23;102877.69;5097628;27;45504;-49
2022/01/27 04:37:23;;;;;;;;;62.25;45.00;;;;;4.30;70.38;102845.72;5097212;27;46277;-46
2022/01/27 04:40:04;;;;;;;;;72.00;51.25;;;;;4.40;70.66;102870.88;5096790;27;45442;-48
2022/01/27 04:45:09;;;;;;;;;59.50;42.25;;;;;4.33;69.75;102878.13;5100989;27;45339;-46
2022/01/27 04:47:40;;;;;;;;;59.25;39.50;;;;;4.37;69.67;102877.09;5100576;27;46393;-48
2022/01/27 04:50:06;;;;;;;;;65.50;46.75;;;;;4.36;69.57;102879.78;5100587;27;45342;-48
2022/01/27 04:52:35;;;;;;;;;56.50;44.00;;;;;4.35;70.80;102870.19;5100733;27;45314;-49
2022/01/27 04:55:06;;;;;;;;;51.00;41.75;;;;;4.35;70.85;102868.41;5100975;27;45242;-49
2022/01/27 04:57:32;;;;;;;;;57.50;43.00;;;;;4.36;70.48;102863.97;5100548;27;46241;-50
2022/01/27 04:59:57;;;;;;;;;65.50;45.50;;;;;4.36;70.25;102861.34;5100894;27;45555;-52
2022/01/27 05:02:37;;;;;;;;;64.00;46.25;;;;;4.37;70.78;102857.78;5100593;27;45845;-48
2022/01/27 05:05:03;;;;;;;;;66.00;47.25;;;;;4.35;69.95;102860.50;5100675;27;45272;-46
2022/01/27 05:07:28;;;;;;;;;59.00;42.50;;;;;4.37;69.85;102865.69;5100504;27;45899;-48
2022/01/27 05:09:59;;;;;;;;;64.75;42.50;;;;;4.35;70.83;102859.63;5100565;27;45360;-49
2022/01/27 05:15:13;;;;;;;;;61.75;46.75;;;;;4.33;70.36;102851.75;5038071;28;45488;-47
2022/01/27 05:17:38;;;;;;;;;60.75;45.00;;;;;4.32;70.62;102857.09;5040205;28;46319;-48
2022/01/27 05:20:04;;;;;;;;;60.75;45.75;;;;;4.30;70.31;102861.53;5040177;28;45391;-48
2022/01/27 05:22:31;;;;;;;;;62.75;42.50;;;;;4.30;70.25;102851.91;5038837;28;45365;-49
2022/01/27 05:24:57;;;;;;;;;64.75;46.25;;;;;4.25;70.19;102844.13;5039519;28;45428;-48
2022/01/27 05:27:22;;;;;;;;;57.25;46.75;;;;;4.21;70.15;102846.94;5038525;28;45381;-52
2022/01/27 05:29:48;;;;;;;;;65.50;44.00;;;;;4.27;70.75;102853.78;5038110;28;45420;-46
2022/01/27 05:32:13;;;;;;;;;63.25;44.25;;;;;4.29;70.02;102850.16;5021522;28;45474;-48
2022/01/27 05:34:38;;;;;;;;;65.50;43.50;;;;;4.30;69.89;102856.28;5039647;28;45396;-49
2022/01/27 05:37:04;;;;;;;;;60.25;43.00;;;;;4.26;70.59;102852.91;5039722;28;45478;-48
2022/01/27 05:39:29;;;;;;;;;48.25;42.25;;;;;4.22;70.80;102844.25;5038400;28;45360;-49
2022/01/27 05:41:55;;;;;;;;;42.50;36.25;;;;;4.30;70.96;102849.25;5036982;28;45341;-47
2022/01/27 05:44:20;;;;;;;;;54.50;44.50;;;;;4.28;70.28;102850.22;5037035;28;45432;-48
2022/01/27 05:46:45;;;;;;;;;61.75;38.00;;;;;4.28;70.74;102851.06;5036615;28;46157;-46
2022/01/27 05:49:11;;;;;;;;;54.25;46.50;;;;;4.30;70.68;102851.91;5036882;28;45380;-47
2022/01/27 05:51:36;;;;;;;;;61.75;44.75;;;;;4.29;71.04;102839.63;5042290;28;45381;-48
2022/01/27 05:54:02;;;;;;;;;50.75;38.25;;;;;4.28;70.75;102842.31;5059508;28;45375;-48
2022/01/27 05:56:27;;;;;;;;;53.75;39.50;;;;;4.28;70.16;102843.16;5057961;28;47106;-49
2022/01/27 05:58:52;;;;;;;;;57.00;47.50;;;;;4.29;70.73;102836.13;5059426;28;45162;-49
2022/01/27 06:01:18;;;;;;;;;55.50;39.25;;;;;4.32;69.83;102838.66;5062813;28;45260;-46
2022/01/27 06:03:43;;;;;;;;;50.75;38.75;;;;;4.34;71.59;102840.34;5062748;28;45509;-48
2022/01/27 06:06:09;;;;;;;;;47.00;34.50;;;;;4.36;70.08;102841.13;5059329;28;46995;-49
2022/01/27 06:08:34;;;;;;;;;64.25;46.50;;;;;4.36;70.29;102850.81;5058915;28;45466;-51
2022/01/27 06:11:00;;;;;;;;;62.00;43.00;;;;;4.35;70.31;102852.59;5059433;28;45319;-49
2022/01/27 06:13:27;;;;;;;;;58.50;42.75;;;;;4.37;70.03;102857.78;5058908;28;45439;-50
2022/01/27 06:15:52;;;;;;;;;60.00;39.00;;;;;4.37;70.14;102858.66;5058732;28;46226;-49
2022/01/27 06:18:18;;;;;;;;;47.00;39.00;;;;;4.35;70.78;102846.47;5058717;28;45445;-48
2022/01/27 06:20:45;;;;;;;;;59.00;42.75;;;;;4.42;70.43;102863.75;5058685;28;45406;-52
2022/01/27 06:23:12;;;;;;;;;53.00;38.25;;;;;4.42;69.88;102858.47;5058945;28;45445;-50
2022/01/27 06:25:37;;;;;;;;;59.75;42.75;;;;;4.44;69.85;102856.66;5058492;28;46211;-50
2022/01/27 06:28:03;;;;;;;;;57.75;44.25;;;;;4.47;70.14;102865.31;5058282;28;45233;-49
2022/01/27 06:30:28;;;;;;;;;64.75;43.50;;;;;4.46;70.07;102862.72;5058825;28;45218;-46
2022/01/27 06:32:53;;;;;;;;;64.75;41.50;;;;;4.48;70.75;102855.63;5058831;28;45254;-47
2022/01/27 06:35:19;;;;;;;;;59.25;43.00;;;;;4.52;70.26;102870.44;5058504;28;45352;-54
2022/01/27 06:37:47;;;;;;;;;51.50;40.50;;;;;4.54;70.44;102876.50;5058222;28;45449;-49
2022/01/27 06:40:14;;;;;;;;;49.00;39.75;;;;;4.54;69.88;102867.72;5067922;27;45430;-49
2022/01/27 06:42:40;;;;;;;;;53.25;38.00;;;;;4.59;69.80;102868.41;5099392;27;45376;-48
2022/01/27 06:45:06;;;;;;;;;60.75;42.00;;;;;4.60;70.05;102862.25;5098769;27;46260;-48
2022/01/27 06:47:32;;;;;;;;;63.50;42.75;;;;;4.63;69.85;102867.38;5098745;27;45270;-49
2022/01/27 06:49:57;;;;;;;;;66.50;41.75;;;;;4.59;69.70;102861.34;5099113;27;45381;-47
2022/01/27 06:52:26;;;;;;;;;56.00;41.00;;;;;4.60;70.14;102873.66;5098962;27;45268;-48
2022/01/27 06:54:52;;;;;;;;;49.00;40.50;;;;;4.62;69.58;102877.06;5098700;27;45457;-46
2022/01/27 06:57:17;;;;;;;;;52.25;39.75;;;;;4.60;69.94;102878.91;5098756;27;45317;-54
2022/01/27 06:59:43;;;;;;;;;63.50;43.75;;;;;4.58;69.99;102872.81;5098788;27;45342;-49
2022/01/27 07:02:08;;;;;;;;;49.00;43.25;;;;;4.58;69.50;102882.50;5099138;27;45404;-48
2022/01/27 07:04:34;;;;;;;;;53.75;43.00;;;;;4.59;69.64;102873.69;5098597;27;45498;-47
2022/01/27 07:06:59;;;;;;;;;59.00;43.50;;;;;4.59;69.74;102871.91;5098726;27;45281;-48
2022/01/27 07:09:24;;;;;;;;;53.00;38.25;;;;;4.62;69.29;102889.41;5098658;27;45492;-47
2022/01/27 07:11:50;;;;;;;;;57.25;43.25;;;;;4.62;69.16;102887.63;5098749;27;45248;-47
2022/01/27 07:14:15;;;;;;;;;53.25;40.75;;;;;4.64;69.41;102891.06;5098381;27;45212;-46
2022/01/27 07:16:42;;;;;;;;;43.75;39.00;;;;;4.65;69.95;102890.16;5098156;27;45392;-49
2022/01/27 07:19:07;;;;;;;;;50.25;38.25;;;;;4.68;69.88;102886.56;5098597;27;45491;-47
2022/01/27 07:21:33;;;;;;;;;57.25;41.75;;;;;4.71;68.94;102889.06;5098640;27;45439;-47
2022/01/27 07:23:58;;;;;;;;;57.25;38.25;;;;;4.72;69.08;102886.38;5098154;27;45462;-46
2022/01/27 07:26:27;;;;;;;;;60.50;40.75;;;;;4.72;68.66;102883.75;5098327;27;45428;-48
2022/01/27 07:28:53;;;;;;;;;50.50;41.00;;;;;4.72;69.57;102891.66;5098296;27;45421;-50
2022/01/27 07:31:19;;;;;;;;;49.25;36.25;;;;;4.74;69.38;102878.41;5098755;27;45306;-55
2022/01/27 07:33:47;;;;;;;;;60.25;42.25;;;;;4.67;69.49;102874.25;5098149;27;46414;-47
2022/01/27 07:36:13;;;;;;;;;61.00;43.25;;;;;4.71;69.02;102876.72;5097722;27;45478;-47
2022/01/27 07:38:39;;;;;;;;;56.25;43.25;;;;;4.71;69.38;102875.88;5098225;27;45180;-49
2022/01/27 07:41:05;;;;;;;;;58.75;41.50;;;;;4.72;69.67;102882.88;5098090;27;45305;-47
2022/01/27 07:43:30;;;;;;;;;47.00;41.75;;;;;4.72;69.27;102883.75;5097926;27;46052;-45
2022/01/27 07:45:56;;;;;;;;;59.75;40.75;;;;;4.72;68.77;102883.75;5097359;27;45522;-45
2022/01/27 07:48:21;;;;;;;;;66.25;46.50;;;;;4.73;69.14;102880.19;5096520;27;45453;-46
2022/01/27 07:50:47;;;;;;;;;60.50;42.25;;;;;4.73;69.05;102892.50;5097176;27;45426;-46
2022/01/27 07:53:12;;;;;;;;;53.50;37.25;;;;;4.72;69.79;102875.84;5097068;27;45371;-47
2022/01/27 07:55:38;;;;;;;;;47.75;40.50;;;;;4.72;69.07;102881.09;5096979;27;45428;-48
2022/01/27 07:58:03;;;;;;;;;64.75;45.00;;;;;4.71;69.47;102874.09;5097300;27;45405;-47
2022/01/27 08:00:28;;;;;;;;;57.25;41.25;;;;;4.66;69.08;102862.88;5096892;27;45503;-47
2022/01/27 08:02:54;;;;;;;;;58.00;41.25;;;;;4.73;69.38;102872.28;5096717;27;46140;-50
2022/01/27 08:05:21;;;;;;;;;63.75;43.25;;;;;4.72;68.61;102880.25;5097013;27;45434;-48
2022/01/27 08:07:47;;;;;;;;;54.00;44.50;;;;;4.73;69.71;102888.09;5096866;27;45359;-49
2022/01/27 08:10:12;;;;;;;;;48.00;44.00;;;;;4.70;69.57;102880.28;5096930;27;45503;-48
2022/01/27 08:12:40;;;;;;;;;39.00;33.25;;;;;4.78;69.08;102895.84;5078349;27;46987;-48
2022/01/27 08:15:06;;;;;;;;;68.00;43.25;;;;;4.74;69.22;102887.16;5096703;27;45333;-53
2022/01/27 08:17:32;;;;;;;;;57.00;42.50;;;;;4.71;68.46;102884.63;5096715;27;45479;-47
2022/01/27 08:19:57;;;;;;;;;52.75;38.75;;;;;4.69;69.54;102890.91;5100316;27;45389;-48
2022/01/27 08:22:23;;;;;;;;;54.00;43.00;;;;;4.71;69.48;102889.06;5100546;27;46176;-45
2022/01/27 08:24:48;;;;;;;;;63.25;43.00;;;;;4.74;69.03;102895.09;5100224;27;45732;-46
2022/01/27 08:27:17;;;;;;;;;62.00;44.00;;;;;4.77;69.54;102894.13;5100465;27;45359;-45
2022/01/27 08:29:48;;;;;;;;;54.00;42.75;;;;;4.75;68.97;102896.78;5082069;27;45271;-49
2022/01/27 08:32:27;;;;;;;;;48.50;43.25;;;;;4.79;69.11;102899.31;5100216;27;45479;-50
2022/01/27 08:34:52;;;;;;;;;44.75;38.00;;;;;4.83;69.46;102893.03;5100451;27;45485;-47
2022/01/27 08:37:18;;;;;;;;;57.00;35.50;;;;;4.84;69.08;102900.00;5100230;27;45423;-48
2022/01/27 08:39:46;;;;;;;;;57.25;41.00;;;;;4.77;69.36;102893.25;5100412;27;45444;-45
2022/01/27 08:42:12;;;;;;;;;63.25;43.00;;;;;4.88;68.47;102905.09;5100256;27;46244;-45
2022/01/27 08:44:38;;;;;;;;;63.50;42.25;;;;;4.92;68.72;102896.16;5099937;27;45405;-52
2022/01/27 08:47:05;;;;;;;;;58.25;42.75;;;;;4.96;68.50;102896.91;5099901;27;45511;-48
2022/01/27 08:49:30;;;;;;;;;60.50;45.25;;;;;4.99;68.94;102896.81;5100876;27;45304;-49
2022/01/27 08:51:57;;;;;;;;;55.00;39.25;;;;;4.98;68.37;102900.38;5099863;27;45356;-48
2022/01/27 08:54:24;;;;;;;;;67.75;46.25;;;;;4.98;69.09;102900.38;5099992;27;45540;-49
2022/01/27 08:56:50;;;;;;;;;47.75;40.75;;;;;4.95;68.11;102895.22;5100077;27;45358;-48
2022/01/27 08:59:16;;;;;;;;;59.00;44.75;;;;;4.96;68.85;102881.94;5099823;27;45401;-49
2022/01/27 09:01:43;;;;;;;;;56.25;41.75;;;;;5.00;67.92;102886.19;5099590;27;46095;-48
2022/01/27 09:04:09;;;;;;;;;48.50;39.75;;;;;5.04;68.87;102881.66;5100217;27;45489;-49
2022/01/27 09:06:35;;;;;;;;;59.50;44.75;;;;;5.07;68.52;102878.91;5099789;27;45322;-49
2022/01/27 09:09:01;;;;;;;;;54.00;41.00;;;;;5.09;67.88;102878.84;5100050;27;45390;-47
2022/01/27 09:11:31;;;;;;;;;65.75;45.75;;;;;5.11;68.34;102879.66;5099640;27;45999;-48
2022/01/27 09:13:58;;;;;;;;;54.50;40.75;;;;;5.12;67.92;102874.31;5099647;27;45492;-45
2022/01/27 09:16:26;;;;;;;;;58.75;44.25;;;;;5.15;68.12;102871.56;5099512;27;45437;-48
2022/01/27 09:18:53;;;;;;;;;70.00;44.75;;;;;5.16;68.39;102870.63;5099884;27;45516;-45
2022/01/27 09:21:26;;;;;;;;;59.00;43.75;;;;;5.18;68.28;102863.53;5098758;27;45420;-48
2022/01/27 09:23:53;;;;;;;;;60.00;42.25;;;;;5.14;67.78;102848.75;5097726;27;45405;-48
2022/01/27 09:29:09;;;;;;;;;67.50;45.75;;;;;5.36;67.88;102859.31;5035859;28;45324;-54
2022/01/27 09:31:35;;;;;;;;;58.75;47.00;;;;;5.44;67.94;102870.44;5034896;28;45934;-47
2022/01/27 09:34:01;;;;;;;;;59.25;44.50;;;;;5.57;67.17;102875.22;5035538;28;45390;-48
2022/01/27 09:36:26;;;;;;;;;54.25;42.75;;;;;5.64;67.29;102868.75;5036661;28;45349;-46
2022/01/27 09:38:52;;;;;;;;;59.50;43.75;;;;;5.71;66.83;102863.16;5037286;28;45532;-49
2022/01/27 09:41:19;;;;;;;;;68.75;47.00;;;;;5.70;67.14;102860.59;5037809;28;45305;-46
2022/01/27 09:43:48;;;;;;;;;60.50;45.00;;;;;5.87;66.68;102875.72;5036378;28;45587;-45
2022/01/27 09:46:16;;;;;;;;;63.00;45.25;;;;;5.96;66.51;102864.81;5036210;28;45343;-48
2022/01/27 09:48:45;;;;;;;;;60.25;42.75;;;;;6.04;66.23;102862.69;5036956;28;45288;-46
2022/01/27 09:51:25;;;;;;;;;47.25;41.75;;;;;6.12;66.06;102865.88;5036303;28;45443;-46
2022/01/27 09:53:53;;;;;;;;;51.50;42.00;;;;;6.18;65.83;102847.09;5036201;28;45486;-47
2022/01/27 09:56:19;;;;;;;;;43.00;34.75;;;;;6.30;65.25;102858.91;5036072;28;45395;-47
2022/01/27 09:58:45;;;;;;;;;64.00;47.00;;;;;6.36;65.48;102860.44;5035738;28;45531;-47
2022/01/27 10:01:11;;;;;;;;;63.75;46.00;;;;;6.42;65.01;102863.66;5035271;28;46178;-46
2022/01/27 10:03:59;;;;;;;;;65.00;45.75;;;;;6.51;65.37;102857.13;5035537;28;45368;-47
2022/01/27 10:06:31;;;;;;;;;56.00;44.75;;;;;6.64;64.50;102854.78;5048973;28;45468;-48
2022/01/27 10:09:23;;;;;;;;;58.50;41.25;;;;;6.77;64.67;102857.72;5058100;28;45398;-46
2022/01/27 10:11:50;;;;;;;;;51.25;43.75;;;;;6.88;64.02;102853.66;5057557;28;45941;-45
2022/01/27 10:14:35;;;;;;;;;55.50;44.50;;;;;6.98;64.73;102856.72;5057894;28;45323;-45
2022/01/27 10:17:06;;;;;;;;;60.00;39.00;;;;;7.12;63.87;102856.06;5057420;28;45528;-47
2022/01/27 10:19:35;;;;;;;;;66.25;44.75;;;;;7.18;63.49;102855.78;5057605;28;45437;-51
2022/01/27 10:22:04;;;;;;;;;60.50;40.50;;;;;7.22;63.31;102852.94;5057474;28;46223;-45
2022/01/27 10:24:32;;;;;;;;;49.50;43.25;;;;;7.31;63.00;102851.63;5057656;28;45437;-47
2022/01/27 10:27:32;;;;;;;;;53.00;40.75;;;;;7.40;62.60;102855.63;5057520;28;45277;-45
2022/01/27 10:32:50;;;;;;;;;58.00;42.50;;;;;7.60;62.72;102867.91;5057460;28;45951;-47
2022/01/27 10:35:21;;;;;;;;;63.50;45.25;;;;;7.61;62.40;102862.50;5015122;28;46057;-49
2022/01/27 10:38:06;;;;;;;;;49.25;41.75;;;;;7.58;62.58;102861.78;5015301;28;45480;-52
2022/01/27 10:40:37;;;;;;;;;52.50;43.50;;;;;7.48;62.22;102858.75;5022316;28;45286;-45
2022/01/27 10:43:08;;;;;;;;;69.50;42.50;;;;;7.45;62.09;102859.75;5034569;28;45493;-50
2022/01/27 10:45:34;;;;;;;;;63.00;46.50;;;;;7.40;62.92;102843.22;5034838;28;45578;-49
2022/01/27 10:48:30;;;;;;;;;59.25;42.75;;;;;7.37;63.16;102850.47;5034789;28;45543;-46
2022/01/27 10:53:22;;;;;;;;;57.00;41.25;;;;;7.28;62.78;102840.31;5034314;28;45705;-45
2022/01/27 10:56:08;;;;;;;;;53.25;40.75;;;;;7.21;63.13;102845.06;5034752;28;45377;-45
2022/01/27 10:58:34;;;;;;;;;37.75;26.50;;;;;7.17;63.40;102844.34;5034172;28;45733;-48
2022/01/27 11:01:01;;;;;;;;;61.75;44.00;;;;;7.12;63.34;102843.72;5034767;28;45462;-51
2022/01/27 11:03:29;;;;;;;;;52.75;39.00;;;;;7.02;63.21;102842.41;5034332;28;46030;-47
2022/01/27 11:05:56;;;;;;;;;51.50;34.75;;;;;7.03;63.84;102843.28;5034819;28;45439;-46
2022/01/27 11:08:24;;;;;;;;;47.75;38.50;;;;;6.99;63.84;102843.44;5034608;28;45392;-47
2022/01/27 11:10:51;;;;;;;;;50.25;38.00;;;;;6.87;64.01;102830.78;5034478;28;45460;-48
2022/01/27 11:13:19;;;;;;;;;63.50;42.25;;;;;6.97;64.28;102852.38;5055523;28;45276;-47
2022/01/27 11:15:46;;;;;;;;;69.25;42.50;;;;;6.97;64.18;102855.88;5056501;28;45352;-46
2022/01/27 11:18:16;;;;;;;;;62.00;41.00;;;;;6.93;64.23;102853.44;5056718;28;45472;-49
2022/01/27 11:20:53;;;;;;;;;49.50;37.75;;;;;6.92;64.20;102851.72;5057258;28;45570;-51
2022/01/27 11:26:07;;;;;;;;;60.75;39.25;;;;;6.87;64.51;102843.13;5056785;28;45387;-47
2022/01/27 11:28:34;;;;;;;;;57.00;40.25;;;;;6.78;64.67;102838.28;5056302;28;45686;-48
2022/01/27 11:31:21;;;;;;;;;66.00;43.25;;;;;6.88;65.14;102839.56;5056786;28;45441;-46
2022/01/27 11:34:00;;;;;;;;;47.75;37.50;;;;;6.93;65.07;102840.22;5056435;28;45425;-46
2022/01/27 11:36:26;;;;;;;;;49.50;32.50;;;;;6.94;65.08;102839.28;5057193;28;45453;-53
2022/01/27 11:38:51;;;;;;;;;51.00;42.00;;;;;6.99;64.40;102837.25;5057041;28;45296;-49
2022/01/27 11:41:47;;;;;;;;;59.00;41.75;;;;;7.02;64.28;102830.97;5084708;27;45436;-47
2022/01/27 11:44:28;;;;;;;;;61.50;45.25;;;;;7.03;65.29;102820.31;5078708;27;46396;-45
2022/01/27 11:47:13;;;;;;;;;46.25;40.75;;;;;7.07;64.93;102818.38;5097689;27;45160;-44
2022/01/27 11:50:23;;;;;;;;;58.75;41.75;;;;;7.11;64.72;102809.38;5096515;27;45461;-47
2022/01/27 11:52:59;;;;;;;;;64.00;44.25;;;;;7.12;64.97;102803.13;5094981;27;45302;-50
2022/01/27 11:55:24;;;;;;;;;62.00;44.50;;;;;7.17;64.58;102799.34;5096680;27;46993;-45
2022/01/27 11:57:54;;;;;;;;;61.75;44.50;;;;;7.22;64.05;102802.63;5096772;27;45389;-48
2022/01/27 12:00:22;;;;;;;;;60.25;42.75;;;;;7.27;64.83;102791.81;5094785;27;45504;-50
2022/01/27 12:03:03;;;;;;;;;66.75;43.50;;;;;7.40;64.02;102802.66;5096761;27;45735;-47
2022/01/27 12:05:32;;;;;;;;;56.25;41.00;;;;;7.43;64.19;102794.56;5096123;27;46370;-48
2022/01/27 12:08:09;;;;;;;;;51.00;43.25;;;;;7.42;63.95;102790.22;5096584;27;45385;-44
2022/01/27 12:10:40;;;;;;;;;55.75;42.00;;;;;7.45;64.64;102801.50;5096640;27;45958;-46
2022/01/27 12:13:48;;;;;;;;;52.75;39.50;;;;;7.49;64.24;102794.25;5078393;27;45496;-46
2022/01/27 12:19:04;;;;;;;;;56.50;40.75;;;;;7.20;64.07;102750.69;5072356;28;45520;-48